sensor_id;sensor_type;location;lat;lon;timestamp;temperature;humidity
35541;DHT22;21650;48.840;9.162;2022-12-20T00:00:58;3.10;99.90
35541;DHT22;21650;48.840;9.162;2022-12-20T00:03:23;3.10;99.90
35541;DHT22;21650;48.840;9.162;2022-12-20T00:05:49;3.10;99.90
35541;DHT22;21650;48.840;9.162;2022-12-20T00:08:15;3.10;99.90
35541;DHT22;21650;48.840;9.162;2022-12-20T00:10:42;3.10;99.90
35541;DHT22;21650;48.840;9.162;2022-12-20T00:13:08;3.10;99.90
35541;DHT22;21650;48.840;9.162;2022-12-20T00:15:34;3.10;99.90
35541;DHT22;21650;48.840;9.162;2022-12-20T00:18:00;3.10;99.90
35541;DHT22;21650;48.840;9.162;2022-12-20T00:20:27;3.10;99.90
35541;DHT22;21650;48.840;9.162;2022-12-20T00:22:53;3.10;99.90
35541;DHT22;21650;48.840;9.162;2022-12-20T00:25:19;3.10;99.90
35541;DHT22;21650;48.840;9.162;2022-12-20T00:27:45;3.10;99.90
35541;DHT22;21650;48.840;9.162;2022-12-20T00:30:11;3.10;99.90
35541;DHT22;21650;48.840;9.162;2022-12-20T00:32:37;3.00;99.90
35541;DHT22;21650;48.840;9.162;2022-12-20T00:35:03;3.00;99.90
35541;DHT22;21650;48.840;9.162;2022-12-20T00:37:29;3.00;99.90
35541;DHT22;21650;48.840;9.162;2022-12-20T00:39:54;3.00;99.90
35541;DHT22;21650;48.840;9.162;2022-12-20T00:42:20;3.00;99.90
35541;DHT22;21650;48.840;9.162;2022-12-20T00:44:45;3.10;99.90
35541;DHT22;21650;48.840;9.162;2022-12-20T00:47:11;3.20;99.90
35541;DHT22;21650;48.840;9.162;2022-12-20T00:49:37;3.30;99.90
35541;DHT22;21650;48.840;9.162;2022-12-20T00:52:02;3.30;99.90
35541;DHT22;21650;48.840;9.162;2022-12-20T00:54:28;3.30;99.90
35541;DHT22;21650;48.840;9.162;2022-12-20T00:56:53;3.30;99.90
35541;DHT22;21650;48.840;9.162;2022-12-20T00:59:19;3.30;99.90
35541;DHT22;21650;48.840;9.162;2022-12-20T01:01:46;3.30;99.90
35541;DHT22;21650;48.840;9.162;2022-12-20T01:04:12;3.40;99.90
35541;DHT22;21650;48.840;9.162;2022-12-20T01:06:38;3.40;99.90
35541;DHT22;21650;48.840;9.162;2022-12-20T01:09:04;3.30;99.90
35541;DHT22;21650;48.840;9.162;2022-12-20T01:11:32;3.30;99.90
35541;DHT22;21650;48.840;9.162;2022-12-20T01:14:01;3.30;99.90
35541;DHT22;21650;48.840;9.162;2022-12-20T01:16:34;3.30;99.90
35541;DHT22;21650;48.840;9.162;2022-12-20T01:19:00;3.30;99.90
35541;DHT22;21650;48.840;9.162;2022-12-20T01:21:26;3.20;99.90
35541;DHT22;21650;48.840;9.162;2022-12-20T01:23:53;3.20;99.90
35541;DHT22;21650;48.840;9.162;2022-12-20T01:26:21;3.10;99.90
35541;DHT22;21650;48.840;9.162;2022-12-20T01:28:51;3.10;99.90
35541;DHT22;21650;48.840;9.162;2022-12-20T01:31:18;3.20;99.90
35541;DHT22;21650;48.840;9.162;2022-12-20T01:33:45;3.20;99.90
35541;DHT22;21650;48.840;9.162;2022-12-20T01:36:15;3.20;99.90
35541;DHT22;21650;48.840;9.162;2022-12-20T01:38:41;3.20;99.90
35541;DHT22;21650;48.840;9.162;2022-12-20T01:41:07;3.20;99.90
35541;DHT22;21650;48.840;9.162;2022-12-20T01:46:25;3.20;99.90
35541;DHT22;21650;48.840;9.162;2022-12-20T01:51:35;3.10;99.90
35541;DHT22;21650;48.840;9.162;2022-12-20T01:54:06;3.10;99.90
35541;DHT22;21650;48.840;9.162;2022-12-20T01:56:35;3.10;99.90
35541;DHT22;21650;48.840;9.162;2022-12-20T01:59:01;3.00;99.90
35541;DHT22;21650;48.840;9.162;2022-12-20T02:01:27;3.00;99.90
35541;DHT22;21650;48.840;9.162;2022-12-20T02:03:54;2.90;99.90
35541;DHT22;21650;48.840;9.162;2022-12-20T02:06:23;3.00;99.90
35541;DHT22;21650;48.840;9.162;2022-12-20T02:08:50;3.10;99.90
35541;DHT22;21650;48.840;9.162;2022-12-20T02:11:39;3.00;99.90
35541;DHT22;21650;48.840;9.162;2022-12-20T02:14:34;3.00;99.90
35541;DHT22;21650;48.840;9.162;2022-12-20T02:25:26;2.90;99.90
35541;DHT22;21650;48.840;9.162;2022-12-20T02:28:31;2.90;99.90
35541;DHT22;21650;48.840;9.162;2022-12-20T02:30:59;2.80;99.90
35541;DHT22;21650;48.840;9.162;2022-12-20T02:33:28;2.80;99.90
35541;DHT22;21650;48.840;9.162;2022-12-20T02:35:53;2.70;99.90
35541;DHT22;21650;48.840;9.162;2022-12-20T02:38:27;2.70;99.90
35541;DHT22;21650;48.840;9.162;2022-12-20T02:40:58;2.70;99.90
35541;DHT22;21650;48.840;9.162;2022-12-20T02:43:27;2.70;99.90
35541;DHT22;21650;48.840;9.162;2022-12-20T02:46:12;2.80;99.90
35541;DHT22;21650;48.840;9.162;2022-12-20T02:48:39;2.70;99.90
35541;DHT22;21650;48.840;9.162;2022-12-20T02:51:07;2.70;99.90
35541;DHT22;21650;48.840;9.162;2022-12-20T02:53:34;2.60;99.90
35541;DHT22;21650;48.840;9.162;2022-12-20T02:56:15;2.60;99.90
35541;DHT22;21650;48.840;9.162;2022-12-20T02:58:51;2.70;99.90
35541;DHT22;21650;48.840;9.162;2022-12-20T03:01:23;2.80;99.90
35541;DHT22;21650;48.840;9.162;2022-12-20T03:03:50;3.00;99.90
35541;DHT22;21650;48.840;9.162;2022-12-20T03:06:16;2.90;99.90
35541;DHT22;21650;48.840;9.162;2022-12-20T03:08:42;2.90;99.90
35541;DHT22;21650;48.840;9.162;2022-12-20T03:11:08;2.90;99.90
35541;DHT22;21650;48.840;9.162;2022-12-20T03:13:33;2.90;99.90
35541;DHT22;21650;48.840;9.162;2022-12-20T03:15:59;2.80;99.90
35541;DHT22;21650;48.840;9.162;2022-12-20T03:18:24;2.90;99.90
35541;DHT22;21650;48.840;9.162;2022-12-20T03:20:50;2.90;99.90
35541;DHT22;21650;48.840;9.162;2022-12-20T03:23:16;2.90;99.90
35541;DHT22;21650;48.840;9.162;2022-12-20T03:25:41;2.90;99.90
35541;DHT22;21650;48.840;9.162;2022-12-20T03:28:07;2.90;99.90
35541;DHT22;21650;48.840;9.162;2022-12-20T03:30:33;2.90;99.90
35541;DHT22;21650;48.840;9.162;2022-12-20T03:32:58;2.90;99.90
35541;DHT22;21650;48.840;9.162;2022-12-20T03:35:24;3.00;99.90
35541;DHT22;21650;48.840;9.162;2022-12-20T03:37:49;3.00;99.90
35541;DHT22;21650;48.840;9.162;2022-12-20T03:40:15;3.20;99.90
35541;DHT22;21650;48.840;9.162;2022-12-20T03:42:41;3.20;99.90
35541;DHT22;21650;48.840;9.162;2022-12-20T03:45:07;3.10;99.90
35541;DHT22;21650;48.840;9.162;2022-12-20T03:47:33;3.10;99.90
35541;DHT22;21650;48.840;9.162;2022-12-20T03:49:58;3.10;99.90
35541;DHT22;21650;48.840;9.162;2022-12-20T03:52:24;3.10;99.90
35541;DHT22;21650;48.840;9.162;2022-12-20T03:54:50;3.00;99.90
35541;DHT22;21650;48.840;9.162;2022-12-20T03:57:15;3.00;99.90
35541;DHT22;21650;48.840;9.162;2022-12-20T03:59:41;3.10;99.90
35541;DHT22;21650;48.840;9.162;2022-12-20T04:02:08;3.10;99.90
35541;DHT22;21650;48.840;9.162;2022-12-20T04:04:34;3.10;99.90
35541;DHT22;21650;48.840;9.162;2022-12-20T04:06:59;3.10;99.90
35541;DHT22;21650;48.840;9.162;2022-12-20T04:09:25;3.20;99.90
35541;DHT22;21650;48.840;9.162;2022-12-20T04:11:50;3.30;99.90
35541;DHT22;21650;48.840;9.162;2022-12-20T04:14:16;3.40;99.90
35541;DHT22;21650;48.840;9.162;2022-12-20T04:16:41;3.40;99.90
35541;DHT22;21650;48.840;9.162;2022-12-20T04:19:07;3.30;99.90
35541;DHT22;21650;48.840;9.162;2022-12-20T04:21:34;3.30;99.90
35541;DHT22;21650;48.840;9.162;2022-12-20T04:24:01;3.30;99.90
35541;DHT22;21650;48.840;9.162;2022-12-20T04:26:27;3.30;99.90
35541;DHT22;21650;48.840;9.162;2022-12-20T04:28:53;3.40;99.90
35541;DHT22;21650;48.840;9.162;2022-12-20T04:31:19;3.30;99.90
35541;DHT22;21650;48.840;9.162;2022-12-20T04:33:45;3.20;99.90
35541;DHT22;21650;48.840;9.162;2022-12-20T04:36:11;3.10;99.90
35541;DHT22;21650;48.840;9.162;2022-12-20T04:38:37;3.10;99.90
35541;DHT22;21650;48.840;9.162;2022-12-20T04:41:02;3.10;99.90
35541;DHT22;21650;48.840;9.162;2022-12-20T04:43:28;3.10;99.90
35541;DHT22;21650;48.840;9.162;2022-12-20T04:45:54;3.20;99.90
35541;DHT22;21650;48.840;9.162;2022-12-20T04:48:24;3.20;99.90
35541;DHT22;21650;48.840;9.162;2022-12-20T04:50:54;3.20;99.90
35541;DHT22;21650;48.840;9.162;2022-12-20T04:53:21;3.20;99.90
35541;DHT22;21650;48.840;9.162;2022-12-20T04:56:06;3.20;99.90
35541;DHT22;21650;48.840;9.162;2022-12-20T04:58:32;3.30;99.90
35541;DHT22;21650;48.840;9.162;2022-12-20T05:00:58;3.30;99.90
35541;DHT22;21650;48.840;9.162;2022-12-20T05:03:25;3.30;99.90
35541;DHT22;21650;48.840;9.162;2022-12-20T05:05:51;3.30;99.90
35541;DHT22;21650;48.840;9.162;2022-12-20T05:08:16;3.30;99.90
35541;DHT22;21650;48.840;9.162;2022-12-20T05:10:43;3.30;99.90
35541;DHT22;21650;48.840;9.162;2022-12-20T05:13:09;3.30;99.90
35541;DHT22;21650;48.840;9.162;2022-12-20T05:15:35;3.30;99.90
35541;DHT22;21650;48.840;9.162;2022-12-20T05:18:00;3.40;99.90
35541;DHT22;21650;48.840;9.162;2022-12-20T05:20:27;3.40;99.90
35541;DHT22;21650;48.840;9.162;2022-12-20T05:22:53;3.50;99.90
35541;DHT22;21650;48.840;9.162;2022-12-20T05:25:39;3.50;99.90
35541;DHT22;21650;48.840;9.162;2022-12-20T05:28:26;3.50;99.90
35541;DHT22;21650;48.840;9.162;2022-12-20T05:30:51;3.50;99.90
35541;DHT22;21650;48.840;9.162;2022-12-20T05:33:17;3.50;99.90
35541;DHT22;21650;48.840;9.162;2022-12-20T05:35:42;3.50;99.90
35541;DHT22;21650;48.840;9.162;2022-12-20T05:38:08;3.50;99.90
35541;DHT22;21650;48.840;9.162;2022-12-20T05:40:34;3.50;99.90
35541;DHT22;21650;48.840;9.162;2022-12-20T05:43:00;3.40;99.90
35541;DHT22;21650;48.840;9.162;2022-12-20T05:45:26;3.30;99.90
35541;DHT22;21650;48.840;9.162;2022-12-20T05:47:51;3.20;99.90
35541;DHT22;21650;48.840;9.162;2022-12-20T05:50:17;3.20;99.90
35541;DHT22;21650;48.840;9.162;2022-12-20T05:52:42;3.30;99.90
35541;DHT22;21650;48.840;9.162;2022-12-20T05:55:08;3.30;99.90
35541;DHT22;21650;48.840;9.162;2022-12-20T05:57:34;3.40;99.90
35541;DHT22;21650;48.840;9.162;2022-12-20T06:00:00;3.40;99.90
35541;DHT22;21650;48.840;9.162;2022-12-20T06:02:26;3.40;99.90
35541;DHT22;21650;48.840;9.162;2022-12-20T06:04:52;3.40;99.90
35541;DHT22;21650;48.840;9.162;2022-12-20T06:07:17;3.30;99.90
35541;DHT22;21650;48.840;9.162;2022-12-20T06:09:44;3.30;99.90
35541;DHT22;21650;48.840;9.162;2022-12-20T06:12:09;3.30;99.90
35541;DHT22;21650;48.840;9.162;2022-12-20T06:14:35;3.30;99.90
35541;DHT22;21650;48.840;9.162;2022-12-20T06:17:01;3.20;99.90
35541;DHT22;21650;48.840;9.162;2022-12-20T06:19:27;3.20;99.90
35541;DHT22;21650;48.840;9.162;2022-12-20T06:21:52;3.30;99.90
35541;DHT22;21650;48.840;9.162;2022-12-20T06:24:18;3.30;99.90
35541;DHT22;21650;48.840;9.162;2022-12-20T06:26:43;3.40;99.90
35541;DHT22;21650;48.840;9.162;2022-12-20T06:29:09;3.50;99.90
35541;DHT22;21650;48.840;9.162;2022-12-20T06:31:39;3.50;99.90
35541;DHT22;21650;48.840;9.162;2022-12-20T06:34:04;3.60;99.90
35541;DHT22;21650;48.840;9.162;2022-12-20T06:36:30;3.50;99.90
35541;DHT22;21650;48.840;9.162;2022-12-20T06:38:56;3.60;99.90
35541;DHT22;21650;48.840;9.162;2022-12-20T06:41:22;3.60;99.90
35541;DHT22;21650;48.840;9.162;2022-12-20T06:43:47;3.60;99.90
35541;DHT22;21650;48.840;9.162;2022-12-20T06:46:13;3.60;99.90
35541;DHT22;21650;48.840;9.162;2022-12-20T06:48:39;3.50;99.90
35541;DHT22;21650;48.840;9.162;2022-12-20T06:51:04;3.50;99.90
35541;DHT22;21650;48.840;9.162;2022-12-20T06:53:30;3.50;99.90
35541;DHT22;21650;48.840;9.162;2022-12-20T06:55:55;3.50;99.90
35541;DHT22;21650;48.840;9.162;2022-12-20T06:58:21;3.50;99.90
35541;DHT22;21650;48.840;9.162;2022-12-20T07:00:47;3.60;99.90
35541;DHT22;21650;48.840;9.162;2022-12-20T07:03:13;3.70;99.90
35541;DHT22;21650;48.840;9.162;2022-12-20T07:05:39;3.70;99.90
35541;DHT22;21650;48.840;9.162;2022-12-20T07:08:05;3.60;99.90
35541;DHT22;21650;48.840;9.162;2022-12-20T07:10:33;3.60;99.90
35541;DHT22;21650;48.840;9.162;2022-12-20T07:12:59;3.60;99.90
35541;DHT22;21650;48.840;9.162;2022-12-20T07:15:25;3.50;99.90
35541;DHT22;21650;48.840;9.162;2022-12-20T07:17:50;3.50;99.90
35541;DHT22;21650;48.840;9.162;2022-12-20T07:20:16;3.50;99.90
35541;DHT22;21650;48.840;9.162;2022-12-20T07:22:42;3.50;99.90
35541;DHT22;21650;48.840;9.162;2022-12-20T07:25:09;3.40;99.90
35541;DHT22;21650;48.840;9.162;2022-12-20T07:27:35;3.40;99.90
35541;DHT22;21650;48.840;9.162;2022-12-20T07:30:00;3.40;99.90
35541;DHT22;21650;48.840;9.162;2022-12-20T07:32:26;3.30;99.90
35541;DHT22;21650;48.840;9.162;2022-12-20T07:34:51;3.30;99.90
35541;DHT22;21650;48.840;9.162;2022-12-20T07:37:18;3.30;99.90
35541;DHT22;21650;48.840;9.162;2022-12-20T07:39:43;3.40;99.90
35541;DHT22;21650;48.840;9.162;2022-12-20T07:42:10;3.40;99.90
35541;DHT22;21650;48.840;9.162;2022-12-20T07:44:35;3.30;99.90
35541;DHT22;21650;48.840;9.162;2022-12-20T07:47:01;3.40;99.90
35541;DHT22;21650;48.840;9.162;2022-12-20T07:49:27;3.40;99.90
35541;DHT22;21650;48.840;9.162;2022-12-20T07:51:55;3.50;99.90
35541;DHT22;21650;48.840;9.162;2022-12-20T07:54:27;3.50;99.90
35541;DHT22;21650;48.840;9.162;2022-12-20T07:56:57;3.60;99.90
35541;DHT22;21650;48.840;9.162;2022-12-20T07:59:30;3.50;99.90
35541;DHT22;21650;48.840;9.162;2022-12-20T08:01:59;3.60;99.90
35541;DHT22;21650;48.840;9.162;2022-12-20T08:04:26;3.70;99.90
35541;DHT22;21650;48.840;9.162;2022-12-20T08:06:54;3.70;99.90
35541;DHT22;21650;48.840;9.162;2022-12-20T08:09:21;3.80;99.90
35541;DHT22;21650;48.840;9.162;2022-12-20T08:11:49;3.80;99.90
35541;DHT22;21650;48.840;9.162;2022-12-20T08:14:16;3.80;99.90
35541;DHT22;21650;48.840;9.162;2022-12-20T08:16:43;3.90;99.90
35541;DHT22;21650;48.840;9.162;2022-12-20T08:19:09;3.90;99.90
35541;DHT22;21650;48.840;9.162;2022-12-20T08:21:35;4.10;99.90
35541;DHT22;21650;48.840;9.162;2022-12-20T08:24:01;4.10;99.90
35541;DHT22;21650;48.840;9.162;2022-12-20T08:26:27;4.20;99.90
35541;DHT22;21650;48.840;9.162;2022-12-20T08:28:53;4.30;99.90
35541;DHT22;21650;48.840;9.162;2022-12-20T08:31:19;4.30;99.90
35541;DHT22;21650;48.840;9.162;2022-12-20T08:33:45;4.30;99.90
35541;DHT22;21650;48.840;9.162;2022-12-20T08:36:12;4.30;99.90
35541;DHT22;21650;48.840;9.162;2022-12-20T08:38:38;4.30;99.90
35541;DHT22;21650;48.840;9.162;2022-12-20T08:41:07;4.40;99.90
35541;DHT22;21650;48.840;9.162;2022-12-20T08:43:33;4.50;99.90
35541;DHT22;21650;48.840;9.162;2022-12-20T08:45:59;4.50;99.90
35541;DHT22;21650;48.840;9.162;2022-12-20T08:48:25;4.60;99.90
35541;DHT22;21650;48.840;9.162;2022-12-20T08:50:59;4.70;99.90
35541;DHT22;21650;48.840;9.162;2022-12-20T08:53:26;4.70;99.90
35541;DHT22;21650;48.840;9.162;2022-12-20T08:55:52;4.90;99.90
35541;DHT22;21650;48.840;9.162;2022-12-20T08:58:18;4.90;99.90
35541;DHT22;21650;48.840;9.162;2022-12-20T09:00:44;5.00;99.90
35541;DHT22;21650;48.840;9.162;2022-12-20T09:03:11;5.00;99.90
35541;DHT22;21650;48.840;9.162;2022-12-20T09:05:57;5.00;99.90
35541;DHT22;21650;48.840;9.162;2022-12-20T09:08:23;5.10;99.90
35541;DHT22;21650;48.840;9.162;2022-12-20T09:10:49;5.10;99.90
35541;DHT22;21650;48.840;9.162;2022-12-20T09:13:14;5.20;99.90
35541;DHT22;21650;48.840;9.162;2022-12-20T09:15:40;5.20;99.90
35541;DHT22;21650;48.840;9.162;2022-12-20T09:18:07;5.20;99.90
35541;DHT22;21650;48.840;9.162;2022-12-20T09:20:33;5.20;99.90
35541;DHT22;21650;48.840;9.162;2022-12-20T09:22:58;5.20;99.90
35541;DHT22;21650;48.840;9.162;2022-12-20T09:25:25;5.30;99.90
35541;DHT22;21650;48.840;9.162;2022-12-20T09:27:52;5.20;99.90
35541;DHT22;21650;48.840;9.162;2022-12-20T09:30:17;5.30;99.90
35541;DHT22;21650;48.840;9.162;2022-12-20T09:32:43;5.50;99.90
35541;DHT22;21650;48.840;9.162;2022-12-20T09:35:09;5.50;99.90
35541;DHT22;21650;48.840;9.162;2022-12-20T09:37:34;5.50;99.90
35541;DHT22;21650;48.840;9.162;2022-12-20T09:40:00;5.50;99.90
35541;DHT22;21650;48.840;9.162;2022-12-20T09:42:26;5.50;99.90
35541;DHT22;21650;48.840;9.162;2022-12-20T09:45:00;5.60;99.90
35541;DHT22;21650;48.840;9.162;2022-12-20T09:47:27;5.70;99.90
35541;DHT22;21650;48.840;9.162;2022-12-20T09:49:55;5.70;99.90
35541;DHT22;21650;48.840;9.162;2022-12-20T09:52:38;5.70;99.90
35541;DHT22;21650;48.840;9.162;2022-12-20T09:55:35;5.70;99.90
35541;DHT22;21650;48.840;9.162;2022-12-20T09:58:42;5.80;99.90
35541;DHT22;21650;48.840;9.162;2022-12-20T10:01:21;5.90;99.90
35541;DHT22;21650;48.840;9.162;2022-12-20T10:03:48;5.90;99.90
35541;DHT22;21650;48.840;9.162;2022-12-20T10:09:02;5.90;99.90
35541;DHT22;21650;48.840;9.162;2022-12-20T10:14:14;6.00;99.90
35541;DHT22;21650;48.840;9.162;2022-12-20T10:16:44;6.00;99.90
35541;DHT22;21650;48.840;9.162;2022-12-20T10:22:18;5.90;99.90
35541;DHT22;21650;48.840;9.162;2022-12-20T10:25:30;5.90;99.90
35541;DHT22;21650;48.840;9.162;2022-12-20T10:27:40;6.00;99.90
35541;DHT22;21650;48.840;9.162;2022-12-20T10:30:26;6.10;99.90
35541;DHT22;21650;48.840;9.162;2022-12-20T10:32:54;6.20;99.90
35541;DHT22;21650;48.840;9.162;2022-12-20T10:35:39;6.40;99.90
35541;DHT22;21650;48.840;9.162;2022-12-20T10:38:10;6.40;99.90
35541;DHT22;21650;48.840;9.162;2022-12-20T10:40:46;6.30;99.90
35541;DHT22;21650;48.840;9.162;2022-12-20T10:43:18;6.40;99.90
35541;DHT22;21650;48.840;9.162;2022-12-20T10:45:53;6.50;99.90
35541;DHT22;21650;48.840;9.162;2022-12-20T10:48:38;6.50;99.90
35541;DHT22;21650;48.840;9.162;2022-12-20T10:53:59;6.40;99.90
35541;DHT22;21650;48.840;9.162;2022-12-20T10:56:33;6.50;99.90
35541;DHT22;21650;48.840;9.162;2022-12-20T10:59:21;6.50;99.90
35541;DHT22;21650;48.840;9.162;2022-12-20T11:01:48;6.50;99.90
35541;DHT22;21650;48.840;9.162;2022-12-20T11:04:25;6.40;99.90
35541;DHT22;21650;48.840;9.162;2022-12-20T11:06:51;6.40;99.90
35541;DHT22;21650;48.840;9.162;2022-12-20T11:09:32;6.30;99.90
35541;DHT22;21650;48.840;9.162;2022-12-20T11:12:19;6.30;99.90
35541;DHT22;21650;48.840;9.162;2022-12-20T11:14:45;6.30;99.90
35541;DHT22;21650;48.840;9.162;2022-12-20T11:17:20;6.20;99.90
35541;DHT22;21650;48.840;9.162;2022-12-20T11:22:47;6.40;99.90
35541;DHT22;21650;48.840;9.162;2022-12-20T11:31:35;6.50;99.90
35541;DHT22;21650;48.840;9.162;2022-12-20T11:37:22;6.50;99.90
35541;DHT22;21650;48.840;9.162;2022-12-20T11:40:03;6.50;99.90
35541;DHT22;21650;48.840;9.162;2022-12-20T11:45:26;6.70;99.90
35541;DHT22;21650;48.840;9.162;2022-12-20T11:53:35;6.90;99.90
35541;DHT22;21650;48.840;9.162;2022-12-20T11:56:17;6.90;99.90
35541;DHT22;21650;48.840;9.162;2022-12-20T11:58:48;6.80;99.90
35541;DHT22;21650;48.840;9.162;2022-12-20T12:01:18;6.80;99.90
35541;DHT22;21650;48.840;9.162;2022-12-20T12:04:02;6.70;99.90
35541;DHT22;21650;48.840;9.162;2022-12-20T12:06:36;6.70;99.90
35541;DHT22;21650;48.840;9.162;2022-12-20T12:12:09;6.70;99.90
35541;DHT22;21650;48.840;9.162;2022-12-20T12:14:56;6.80;99.90
35541;DHT22;21650;48.840;9.162;2022-12-20T12:17:45;6.90;99.90
35541;DHT22;21650;48.840;9.162;2022-12-20T12:22:48;7.00;99.90
35541;DHT22;21650;48.840;9.162;2022-12-20T12:25:17;6.90;99.90
35541;DHT22;21650;48.840;9.162;2022-12-20T12:27:43;7.00;99.90
35541;DHT22;21650;48.840;9.162;2022-12-20T12:30:15;7.00;99.90
35541;DHT22;21650;48.840;9.162;2022-12-20T12:43:53;7.10;99.90
35541;DHT22;21650;48.840;9.162;2022-12-20T12:46:35;7.10;99.90
35541;DHT22;21650;48.840;9.162;2022-12-20T12:49:11;7.10;99.90
35541;DHT22;21650;48.840;9.162;2022-12-20T12:51:42;7.20;99.90
35541;DHT22;21650;48.840;9.162;2022-12-20T12:56:39;7.20;99.90
35541;DHT22;21650;48.840;9.162;2022-12-20T13:11:54;7.30;99.90
35541;DHT22;21650;48.840;9.162;2022-12-20T13:19:37;7.30;99.90
35541;DHT22;21650;48.840;9.162;2022-12-20T13:27:36;7.30;99.90
35541;DHT22;21650;48.840;9.162;2022-12-20T13:41:24;7.30;99.90
35541;DHT22;21650;48.840;9.162;2022-12-20T13:43:52;7.20;99.90
35541;DHT22;21650;48.840;9.162;2022-12-20T13:46:31;7.30;99.90
35541;DHT22;21650;48.840;9.162;2022-12-20T13:49:02;7.40;99.90
35541;DHT22;21650;48.840;9.162;2022-12-20T13:51:30;7.30;99.90
35541;DHT22;21650;48.840;9.162;2022-12-20T13:54:01;7.40;99.90
35541;DHT22;21650;48.840;9.162;2022-12-20T13:56:35;7.30;99.90
35541;DHT22;21650;48.840;9.162;2022-12-20T13:59:12;7.30;99.90
35541;DHT22;21650;48.840;9.162;2022-12-20T14:01:53;7.30;99.90
35541;DHT22;21650;48.840;9.162;2022-12-20T14:04:20;7.30;99.90
35541;DHT22;21650;48.840;9.162;2022-12-20T14:06:57;7.30;99.90
35541;DHT22;21650;48.840;9.162;2022-12-20T14:09:37;7.30;99.90
35541;DHT22;21650;48.840;9.162;2022-12-20T14:12:14;7.30;99.90
35541;DHT22;21650;48.840;9.162;2022-12-20T14:14:46;7.30;99.90
35541;DHT22;21650;48.840;9.162;2022-12-20T14:17:32;7.30;99.90
35541;DHT22;21650;48.840;9.162;2022-12-20T14:20:26;7.30;99.90
35541;DHT22;21650;48.840;9.162;2022-12-20T14:23:15;7.30;99.90
35541;DHT22;21650;48.840;9.162;2022-12-20T14:25:45;7.30;99.90
35541;DHT22;21650;48.840;9.162;2022-12-20T14:31:01;7.30;99.90
35541;DHT22;21650;48.840;9.162;2022-12-20T14:33:40;7.30;99.90
35541;DHT22;21650;48.840;9.162;2022-12-20T14:36:17;7.30;99.90
35541;DHT22;21650;48.840;9.162;2022-12-20T14:38:48;7.30;99.90
35541;DHT22;21650;48.840;9.162;2022-12-20T14:41:36;7.20;99.90
35541;DHT22;21650;48.840;9.162;2022-12-20T14:44:23;7.20;99.90
35541;DHT22;21650;48.840;9.162;2022-12-20T14:47:00;7.20;99.90
35541;DHT22;21650;48.840;9.162;2022-12-20T14:49:28;7.10;99.90
35541;DHT22;21650;48.840;9.162;2022-12-20T14:57:28;7.00;99.90
35541;DHT22;21650;48.840;9.162;2022-12-20T15:08:26;6.80;99.90
35541;DHT22;21650;48.840;9.162;2022-12-20T15:13:36;6.80;99.90
35541;DHT22;21650;48.840;9.162;2022-12-20T15:16:05;6.80;99.90
35541;DHT22;21650;48.840;9.162;2022-12-20T15:18:37;6.70;99.90
35541;DHT22;21650;48.840;9.162;2022-12-20T15:21:04;6.70;99.90
35541;DHT22;21650;48.840;9.162;2022-12-20T15:23:31;6.70;99.90
35541;DHT22;21650;48.840;9.162;2022-12-20T15:25:56;6.80;99.90
35541;DHT22;21650;48.840;9.162;2022-12-20T15:28:25;6.80;99.90
35541;DHT22;21650;48.840;9.162;2022-12-20T15:30:52;6.80;99.90
35541;DHT22;21650;48.840;9.162;2022-12-20T15:33:22;6.70;99.90
35541;DHT22;21650;48.840;9.162;2022-12-20T15:35:48;6.70;99.90
35541;DHT22;21650;48.840;9.162;2022-12-20T15:38:16;6.70;99.90
35541;DHT22;21650;48.840;9.162;2022-12-20T15:40:44;6.70;99.90
35541;DHT22;21650;48.840;9.162;2022-12-20T15:43:16;6.60;99.90
35541;DHT22;21650;48.840;9.162;2022-12-20T15:45:44;6.70;99.90
35541;DHT22;21650;48.840;9.162;2022-12-20T15:48:13;6.70;99.90
35541;DHT22;21650;48.840;9.162;2022-12-20T15:50:41;6.70;99.90
35541;DHT22;21650;48.840;9.162;2022-12-20T15:53:13;6.70;99.90
35541;DHT22;21650;48.840;9.162;2022-12-20T15:55:38;6.70;99.90
35541;DHT22;21650;48.840;9.162;2022-12-20T15:58:04;6.80;99.90
35541;DHT22;21650;48.840;9.162;2022-12-20T16:00:30;6.70;99.90
35541;DHT22;21650;48.840;9.162;2022-12-20T16:02:55;6.70;99.90
35541;DHT22;21650;48.840;9.162;2022-12-20T16:05:23;6.70;99.90
35541;DHT22;21650;48.840;9.162;2022-12-20T16:07:49;6.70;99.90
35541;DHT22;21650;48.840;9.162;2022-12-20T16:10:14;6.80;99.90
35541;DHT22;21650;48.840;9.162;2022-12-20T16:12:40;6.70;99.90
35541;DHT22;21650;48.840;9.162;2022-12-20T16:15:18;6.70;99.90
35541;DHT22;21650;48.840;9.162;2022-12-20T16:17:45;6.70;99.90
35541;DHT22;21650;48.840;9.162;2022-12-20T16:20:10;6.70;99.90
35541;DHT22;21650;48.840;9.162;2022-12-20T16:22:36;6.60;99.90
35541;DHT22;21650;48.840;9.162;2022-12-20T16:25:02;6.70;99.90
35541;DHT22;21650;48.840;9.162;2022-12-20T16:27:27;6.70;99.90
35541;DHT22;21650;48.840;9.162;2022-12-20T16:29:53;6.60;99.90
35541;DHT22;21650;48.840;9.162;2022-12-20T16:32:19;6.60;99.90
35541;DHT22;21650;48.840;9.162;2022-12-20T16:34:49;6.60;99.90
35541;DHT22;21650;48.840;9.162;2022-12-20T16:37:17;6.50;99.90
35541;DHT22;21650;48.840;9.162;2022-12-20T16:39:42;6.40;99.90
35541;DHT22;21650;48.840;9.162;2022-12-20T16:42:14;6.40;99.90
35541;DHT22;21650;48.840;9.162;2022-12-20T16:44:41;6.30;99.90
35541;DHT22;21650;48.840;9.162;2022-12-20T16:47:09;6.30;99.90
35541;DHT22;21650;48.840;9.162;2022-12-20T16:49:35;6.30;99.90
35541;DHT22;21650;48.840;9.162;2022-12-20T16:52:02;6.40;99.90
35541;DHT22;21650;48.840;9.162;2022-12-20T16:54:29;6.30;99.90
35541;DHT22;21650;48.840;9.162;2022-12-20T16:56:54;6.40;99.90
35541;DHT22;21650;48.840;9.162;2022-12-20T16:59:24;6.50;99.90
35541;DHT22;21650;48.840;9.162;2022-12-20T17:01:54;6.50;99.90
35541;DHT22;21650;48.840;9.162;2022-12-20T17:04:20;6.60;99.90
35541;DHT22;21650;48.840;9.162;2022-12-20T17:06:46;6.60;99.90
35541;DHT22;21650;48.840;9.162;2022-12-20T17:09:13;6.60;99.90
35541;DHT22;21650;48.840;9.162;2022-12-20T17:11:40;6.60;99.90
35541;DHT22;21650;48.840;9.162;2022-12-20T17:14:06;6.70;99.90
35541;DHT22;21650;48.840;9.162;2022-12-20T17:16:31;6.80;99.90
35541;DHT22;21650;48.840;9.162;2022-12-20T17:18:57;6.70;99.90
35541;DHT22;21650;48.840;9.162;2022-12-20T17:21:39;6.70;99.90
35541;DHT22;21650;48.840;9.162;2022-12-20T17:24:15;6.60;99.90
35541;DHT22;21650;48.840;9.162;2022-12-20T17:26:42;6.60;99.90
35541;DHT22;21650;48.840;9.162;2022-12-20T17:29:09;6.50;99.90
35541;DHT22;21650;48.840;9.162;2022-12-20T17:31:37;6.40;99.90
35541;DHT22;21650;48.840;9.162;2022-12-20T17:34:17;6.50;99.90
35541;DHT22;21650;48.840;9.162;2022-12-20T17:36:46;6.60;99.90
35541;DHT22;21650;48.840;9.162;2022-12-20T17:39:13;6.60;99.90
35541;DHT22;21650;48.840;9.162;2022-12-20T17:41:39;6.70;99.90
35541;DHT22;21650;48.840;9.162;2022-12-20T17:44:19;6.60;99.90
35541;DHT22;21650;48.840;9.162;2022-12-20T17:46:45;6.60;99.90
35541;DHT22;21650;48.840;9.162;2022-12-20T17:49:12;6.50;99.90
35541;DHT22;21650;48.840;9.162;2022-12-20T17:51:37;6.60;99.90
35541;DHT22;21650;48.840;9.162;2022-12-20T17:54:03;6.50;99.90
35541;DHT22;21650;48.840;9.162;2022-12-20T17:56:35;6.40;99.90